KTIK/TIK METAR and TAF weather

Enter ICAO airport designator
Station Type Date Time Source
KTIK METAR 2019/02/16 02:56 UTC NOAA

KTIK 160256Z 02012KT 10SM OVC009 M04/M06 A2999 RMK AO2A CIG 008 RWY13 CIG 008 RWY18 SLP176 T10411060 52026


Station Type Date Time Source
KTIK Decoded METAR 2019/02/16 02:56 UTC NOAA

Tinker Air Force Base, OK, United States (KTIK) 35-25N 097-23W 397M
Feb 15, 2019 - 09:56 PM EST / 2019.02.16 0256 UTC
Wind: from the NNE (020 degrees) at 14 MPH (12 KT):0
Visibility: 10 mile(s):0
Sky conditions: overcast
Temperature: 24.6 F (-4.1 C)
Windchill: 12 F (-11 C):1
Dew Point: 21.2 F (-6.0 C)
Relative Humidity: 86%
Pressure (altimeter): 29.99 in. Hg (1015 hPa)
Pressure tendency: 0.08 inches (2.6 hPa) higher than three hours ago
ob: KTIK 160256Z 02012KT 10SM OVC009 M04/M06 A2999 RMK AO2A CIG 008 RWY13 CIG 008 RWY18 SLP176 T10411060 52026
cycle: 3

Station Type Date Time Source
KTIK TAF 2019/02/16 02:57 UTC NOAA

TAF
AMD KTIK 160247Z 1602/1708 03009KT 9999 OVC009 620092 QNH2983INS
TEMPO 1602/1607 OVC010
BECMG 1617/1618 16010G15KT 9999 OVC012 620122 QNH2966INS
BECMG 1623/1624 14006KT 8000 BR OVC007 QNH2964INS
BECMG 1707/1708 VRB06KT 4800 BR OVC003 QNH2967INS TX03/1702Z TNM05/1607Z


Example: see airport list